Paw Paw, IL (61353)

12:39 AM CDT on August 28, 2015 (GMT -0500)
Welland and Angling Roads | | Change Station
CLOSE
Current Station
Personal Weather Station
Location: Earlville, IL
Elevation: 833 ft
Nearby Weather Stations

Elev 833 ft 41.63 °N, 89.02 °W | Updated 12 seconds ago

Clear
Clear
58.5 °F
Feels Like 58.5 °F
N
0.0
Wind Variable Wind from NE
Gusts 1.6 mph

Today
High -- | Low -- °F
--% Chance of Precip.
Yesterday
High -- | Low -- °F
Precip. -- in
6:17 AM 7:36 PM
Waxing Gibbous, 96% visible
Pressure 30.14 in
Visibility 7.0 miles
Clouds Scattered Clouds 9000 ft
Dew Point 56 °F
Humidity 92%
Rainfall 0.00 in
Snow Depth Not available.
UV 0 out of 12
Pollen 10.10 out of 12
Air Quality Not available.
Flu Activity Not available.
METAR KRPJ 280515Z AUTO 13004KT 7SM SCT090 14/13 A3014 RMK AO2 T01390125
Pressure 30.14 in
Visibility 7.0 miles
Clouds Scattered Clouds 9000 ft
Dew Point 56 °F
Humidity 92%
Rainfall 0.00 in
Snow Depth Not available.
UV 0 out of 12
Pollen 10.10 out of 12
Air Quality Not available.
Flu Activity Not available.
METAR KRPJ 280515Z AUTO 13004KT 7SM SCT090 14/13 A3014 RMK AO2 T01390125

10-Day Weather Forecast

×

Almanac

Astronomy

Aug. 28, 2015 Rise Set
Actual Time
Civil Twilight
Nautical Twilight
Astronomical Twilight
Moon
Length of Visible Light
Length of Day
Tomorrow will be .
, % of the Moon is Illuminated

Today's Extremes

State Highs State Lows

Community

WunderPhotos

Upload Photos

1,850,341 photos uploaded!

WunderBlogs® & News

Nearby

Air Quality

  Air Quality AQ Index Pollutant
Not available.

Snow Depth

Station Depth Elevation

Earthquake Activity

City Distance Mag. Time & Date
Minimum magnitude displayed is 2.5.

Coastal Water Temperatures

Place Temperature

Stations

Nearby Weather Stations

Station Location Temp. Windchill Dew Point Humidity Wind Precip. Elev Updated Type